createdAt,value
2023-10-09T00:01:52.672Z,101172.16
2023-10-09T00:04:24.988Z,101159.38
2023-10-09T00:07:00.642Z,101153.16
2023-10-09T00:09:32.046Z,101158.41
2023-10-09T00:11:59.261Z,101156.28
2023-10-09T00:14:26.994Z,101151.59
2023-10-09T00:17:12.098Z,101152.91
2023-10-09T00:19:38.672Z,101145.81
2023-10-09T00:22:19.759Z,101152.91
2023-10-09T00:24:47.407Z,101132.19
2023-10-09T00:27:15.130Z,101135.75
2023-10-09T00:29:49.006Z,101130.22
2023-10-09T00:32:17.444Z,101127.69
2023-10-09T00:34:44.144Z,101120.56
2023-10-09T00:37:17.204Z,101125.94
2023-10-09T00:39:44.909Z,101123.25
2023-10-09T00:42:16.397Z,101133.06
2023-10-09T00:44:43.231Z,101133.06
2023-10-09T00:47:27.575Z,101134.28
2023-10-09T00:50:09.857Z,101138.25
2023-10-09T00:52:45.027Z,101131.56
2023-10-09T00:55:28.866Z,101130.88
2023-10-09T00:58:06.712Z,101124.47
2023-10-09T01:00:34.158Z,101124.16
2023-10-09T01:03:12.350Z,101117.06
2023-10-09T01:05:39.955Z,101112.69
2023-10-09T01:08:17.473Z,101109.28
2023-10-09T01:11:06.348Z,101101.91
2023-10-09T01:13:55.646Z,101092.44
2023-10-09T01:16:24.936Z,101086.59
2023-10-09T01:18:58.489Z,101077.38
2023-10-09T01:21:27.386Z,101076.53
2023-10-09T01:24:10.488Z,101079.66
2023-10-09T01:26:45.575Z,101081.94
2023-10-09T01:29:15.872Z,101080.81
2023-10-09T01:31:52.647Z,101078.38
2023-10-09T01:34:25.950Z,101076.13
2023-10-09T01:36:56.353Z,101080.53
2023-10-09T01:39:43.351Z,101071.75
2023-10-09T01:42:11.042Z,101069.44
2023-10-09T01:44:43.971Z,101063.94
2023-10-09T01:47:15.197Z,101064.66
2023-10-09T01:49:44.965Z,101066.19
2023-10-09T01:52:16.719Z,101061.41
2023-10-09T01:54:50.777Z,101058.44
2023-10-09T01:57:25.232Z,101066.22
2023-10-09T01:59:54.966Z,101050.19
2023-10-09T02:02:31.938Z,101057.28
2023-10-09T02:05:10.032Z,101062.69
2023-10-09T02:07:45.483Z,101065.69
2023-10-09T02:10:26.869Z,101071.34
2023-10-09T02:13:00.488Z,101071.59
2023-10-09T02:15:46.491Z,101075.72
2023-10-09T02:18:27.942Z,101078.53
2023-10-09T02:21:00.292Z,101066.53
2023-10-09T02:23:45.537Z,101071.91
2023-10-09T02:26:39.183Z,101061.50
2023-10-09T02:29:16.329Z,101065.66
2023-10-09T02:31:47.483Z,101065.34
2023-10-09T02:34:17.753Z,101061.81
2023-10-09T02:36:49.869Z,101065.06
2023-10-09T02:39:27.032Z,101062.66
2023-10-09T02:42:01.351Z,101062.06
2023-10-09T02:44:32.790Z,101053.84
2023-10-09T02:46:59.833Z,101056.66
2023-10-09T02:49:27.743Z,101043.63
2023-10-09T02:51:54.552Z,101044.19
2023-10-09T02:54:23.610Z,101041.50
2023-10-09T02:57:06.971Z,101033.84
2023-10-09T02:59:34.435Z,101033.84
2023-10-09T03:02:01.048Z,101033.09
2023-10-09T03:04:32.172Z,101032.53
2023-10-09T03:06:59.395Z,101037.09
2023-10-09T03:09:29.968Z,101032.25
2023-10-09T03:12:05.806Z,101031.41
2023-10-09T03:14:36.464Z,101032.25
2023-10-09T03:17:03.167Z,101035.94
2023-10-09T03:19:30.709Z,101024.31
2023-10-09T03:22:01.147Z,101026.31
2023-10-09T03:24:28.665Z,101035.94
2023-10-09T03:26:58.224Z,101029.69
2023-10-09T03:29:25.663Z,101025.00
2023-10-09T03:31:52.624Z,101020.91
2023-10-09T03:34:19.689Z,101022.75
2023-10-09T03:36:49.361Z,101011.38
2023-10-09T03:39:34.732Z,101014.69
2023-10-09T03:42:05.800Z,101002.06
2023-10-09T03:44:35.072Z,101021.91
2023-10-09T03:47:02.947Z,101010.13
2023-10-09T03:49:30.517Z,101011.25
2023-10-09T03:51:56.952Z,101007.84
2023-10-09T03:54:24.124Z,101000.06
2023-10-09T03:56:51.180Z,101004.31
2023-10-09T03:59:21.487Z,100997.78
2023-10-09T04:01:51.678Z,101003.91
2023-10-09T04:04:18.483Z,101005.91
2023-10-09T04:06:47.600Z,101015.56
2023-10-09T04:09:20.333Z,101008.19
2023-10-09T04:12:13.604Z,101007.63
2023-10-09T04:14:58.755Z,101008.91
2023-10-09T04:17:25.702Z,101015.84
2023-10-09T04:20:11.187Z,101010.31
2023-10-09T04:22:51.508Z,101017.25
2023-10-09T04:25:30.163Z,101018.84
2023-10-09T04:28:11.567Z,101006.38
2023-10-09T04:30:44.347Z,101002.38
2023-10-09T04:33:30.440Z,101005.38
2023-10-09T04:36:17.429Z,101010.47
2023-10-09T04:39:02.398Z,101010.47
2023-10-09T04:41:29.109Z,101014.00
2023-10-09T04:44:15.161Z,101004.06
2023-10-09T04:47:02.419Z,101005.63
2023-10-09T04:49:28.876Z,101008.22
2023-10-09T04:52:19.085Z,101017.84
2023-10-09T04:55:16.211Z,101009.91
2023-10-09T04:57:45.070Z,101016.44
2023-10-09T05:00:28.066Z,101021.81
2023-10-09T05:03:05.571Z,101011.03
2023-10-09T05:05:44.815Z,101012.75
2023-10-09T05:08:30.964Z,101021.94
2023-10-09T05:11:02.265Z,101016.69
2023-10-09T05:13:43.437Z,101020.25
2023-10-09T05:16:19.886Z,101016.69
2023-10-09T05:18:56.957Z,101010.75
2023-10-09T05:21:32.508Z,101014.44
2023-10-09T05:24:16.382Z,101014.44
2023-10-09T05:26:48.430Z,101010.91
2023-10-09T05:29:34.839Z,101009.59
2023-10-09T05:32:14.780Z,101006.50
2023-10-09T05:35:01.229Z,101013.28
2023-10-09T05:37:36.227Z,101014.69
2023-10-09T05:40:19.059Z,101020.09
2023-10-09T05:42:58.555Z,101024.22
2023-10-09T05:45:51.030Z,101017.13
2023-10-09T05:48:17.612Z,101013.72
2023-10-09T05:50:56.012Z,101007.75
2023-10-09T05:53:42.682Z,101018.00
2023-10-09T05:56:27.355Z,100996.16
2023-10-09T05:59:12.389Z,101015.00
2023-10-09T06:01:57.679Z,101020.53
2023-10-09T06:04:35.014Z,101012.72
2023-10-09T06:07:12.348Z,101027.78
2023-10-09T06:09:51.207Z,101021.25
2023-10-09T06:12:33.259Z,101023.22
2023-10-09T06:15:20.190Z,101029.72
2023-10-09T06:17:51.667Z,101024.94
2023-10-09T06:20:36.819Z,101027.91
2023-10-09T06:23:16.858Z,101029.75
2023-10-09T06:25:52.106Z,101042.09
2023-10-09T06:28:34.173Z,101038.56
2023-10-09T06:31:20.854Z,101028.47
2023-10-09T06:34:07.230Z,101054.28
2023-10-09T06:36:33.766Z,101051.59
2023-10-09T06:39:18.819Z,101037.13
2023-10-09T06:41:46.484Z,101048.19
2023-10-09T06:44:32.827Z,101034.72
2023-10-09T06:47:00.500Z,101038.84
2023-10-09T06:49:37.505Z,101039.25
2023-10-09T06:52:16.478Z,101043.38
2023-10-09T06:54:50.836Z,101035.59
2023-10-09T06:57:38.337Z,101034.88
2023-10-09T07:00:25.079Z,101041.56
2023-10-09T07:02:51.645Z,101039.56
2023-10-09T07:05:19.100Z,101039.25
2023-10-09T07:07:56.024Z,101036.28
2023-10-09T07:10:33.642Z,101042.53
2023-10-09T07:13:00.153Z,101039.00
2023-10-09T07:15:45.278Z,101038.69
2023-10-09T07:18:21.002Z,101050.47
2023-10-09T07:21:00.097Z,101044.22
2023-10-09T07:23:33.867Z,101039.53
2023-10-09T07:26:19.751Z,101036.56
2023-10-09T07:28:49.409Z,101036.94
2023-10-09T07:31:28.517Z,101043.63
2023-10-09T07:33:58.235Z,101045.75
2023-10-09T07:36:35.719Z,101051.69
2023-10-09T07:39:14.188Z,101057.78
2023-10-09T07:41:46.419Z,101053.66
2023-10-09T07:44:32.852Z,101046.84
2023-10-09T07:47:17.791Z,101052.34
2023-10-09T07:49:49.428Z,101056.28
2023-10-09T07:52:17.046Z,101048.78
2023-10-09T07:54:54.366Z,101056.69
2023-10-09T07:57:27.854Z,101061.66
2023-10-09T08:00:02.219Z,101071.81
2023-10-09T08:02:35.593Z,101079.19
2023-10-09T08:05:20.018Z,101090.09
2023-10-09T08:08:26.426Z,101087.09
2023-10-09T08:11:20.753Z,101086.53
2023-10-09T08:13:50.425Z,101082.53
2023-10-09T08:16:27.055Z,101074.38
2023-10-09T08:18:58.334Z,101081.00
2023-10-09T08:21:43.240Z,101083.97
2023-10-09T08:24:29.931Z,101089.47
2023-10-09T08:27:16.394Z,101070.78
2023-10-09T08:29:48.028Z,101070.72
2023-10-09T08:35:29.824Z,101063.69
2023-10-09T08:38:01.216Z,101064.06
2023-10-09T08:40:34.290Z,101077.97
2023-10-09T08:43:15.741Z,101085.09
2023-10-09T08:45:46.781Z,101085.78
2023-10-09T08:48:17.062Z,101087.88
2023-10-09T08:50:50.628Z,101091.25
2023-10-09T08:53:18.070Z,101099.63
2023-10-09T08:55:44.930Z,101094.59
2023-10-09T08:58:21.832Z,101088.88
2023-10-09T09:00:48.904Z,101085.84
2023-10-09T09:03:25.369Z,101089.78
2023-10-09T09:06:02.574Z,101088.47
2023-10-09T09:08:37.359Z,101076.91
2023-10-09T09:11:19.195Z,101084.22
2023-10-09T09:13:49.761Z,101100.16
2023-10-09T09:16:30.830Z,101100.66
2023-10-09T09:19:02.140Z,101102.38
2023-10-09T09:21:29.625Z,101110.19
2023-10-09T09:24:02.550Z,101099.88
2023-10-09T09:26:37.605Z,101111.22
2023-10-09T09:29:06.700Z,101106.53
2023-10-09T09:31:42.814Z,101115.72
2023-10-09T09:34:18.140Z,101109.47
2023-10-09T09:36:54.596Z,101115.13
2023-10-09T09:39:38.423Z,101113.97
2023-10-09T09:42:11.395Z,101115.34
2023-10-09T09:44:44.987Z,101118.44
2023-10-09T09:47:17.499Z,101093.75
2023-10-09T09:49:44.313Z,101098.38
2023-10-09T09:52:13.525Z,101095.19
2023-10-09T09:54:40.636Z,101109.63
2023-10-09T09:57:11.796Z,101112.75
2023-10-09T09:59:44.660Z,101121.91
2023-10-09T10:02:22.089Z,101145.63
2023-10-09T10:04:51.641Z,101134.81
2023-10-09T10:07:22.388Z,101129.78
2023-10-09T10:09:55.245Z,101134.00
2023-10-09T10:12:49.490Z,101139.78
2023-10-09T10:15:16.164Z,101143.72
2023-10-09T10:18:00.262Z,101141.00
2023-10-09T10:20:27.251Z,101148.47
2023-10-09T10:23:20.015Z,101126.78
2023-10-09T10:26:01.031Z,101112.56
2023-10-09T10:28:43.442Z,101097.44
2023-10-09T10:31:10.923Z,101126.16
2023-10-09T10:33:59.460Z,101123.75
2023-10-09T10:36:30.083Z,101116.31
2023-10-09T10:39:05.981Z,101107.66
2023-10-09T10:41:40.082Z,101090.53
2023-10-09T10:44:24.844Z,101095.25
2023-10-09T10:46:54.189Z,101074.03
2023-10-09T10:49:22.469Z,101060.06
2023-10-09T10:51:50.692Z,101049.03
2023-10-09T10:54:46.701Z,101047.47
2023-10-09T10:57:21.120Z,101050.72
2023-10-09T10:59:50.478Z,101059.69
2023-10-09T11:02:29.178Z,101061.69
2023-10-09T11:04:57.023Z,101053.97
2023-10-09T11:07:29.000Z,101050.50
2023-10-09T11:10:06.028Z,101058.00
2023-10-09T11:12:54.593Z,101053.00
2023-10-09T11:15:47.884Z,101050.13
2023-10-09T11:18:21.959Z,101063.81
2023-10-09T11:20:57.778Z,101056.84
2023-10-09T11:23:39.411Z,101062.94
2023-10-09T11:26:26.804Z,101055.69
2023-10-09T11:29:38.465Z,101054.66
2023-10-09T11:32:19.119Z,101039.69
2023-10-09T11:34:54.730Z,101027.00
2023-10-09T11:37:29.544Z,101035.34
2023-10-09T11:39:58.866Z,101019.97
2023-10-09T11:42:39.398Z,101019.97
2023-10-09T11:45:29.518Z,101022.09
2023-10-09T11:47:58.616Z,101015.13
2023-10-09T11:51:06.928Z,101003.38
2023-10-09T11:53:55.508Z,101002.28
2023-10-09T11:56:28.179Z,101002.63
2023-10-09T11:58:55.694Z,101000.22
2023-10-09T12:01:22.603Z,100997.28
2023-10-09T12:03:53.321Z,100999.16
2023-10-09T12:06:31.019Z,100980.06
2023-10-09T12:08:59.377Z,100977.41
2023-10-09T12:11:30.591Z,100982.38
2023-10-09T12:13:58.798Z,100982.34
2023-10-09T12:16:29.341Z,100979.72
2023-10-09T12:18:56.061Z,100997.16
2023-10-09T12:21:23.298Z,100995.41
2023-10-09T12:23:49.829Z,100980.53
2023-10-09T12:26:16.450Z,100967.25
2023-10-09T12:28:47.011Z,100961.13
2023-10-09T12:31:16.109Z,100954.56
2023-10-09T12:33:43.054Z,100952.50
2023-10-09T12:36:20.664Z,100967.09
2023-10-09T12:39:00.012Z,100957.34
2023-10-09T12:41:27.916Z,100961.41
2023-10-09T12:44:01.040Z,100968.78
2023-10-09T12:46:27.902Z,100968.16
2023-10-09T12:48:58.644Z,100962.31
2023-10-09T12:51:31.070Z,100958.97
2023-10-09T12:53:58.265Z,100962.97
2023-10-09T12:56:33.571Z,100959.03
2023-10-09T12:59:02.057Z,100950.91
2023-10-09T13:01:33.228Z,100952.78
2023-10-09T13:04:12.407Z,100960.78
2023-10-09T13:06:45.184Z,100963.09
2023-10-09T13:09:16.586Z,100958.94
2023-10-09T13:11:44.515Z,100961.50
2023-10-09T13:14:18.259Z,100962.34
2023-10-09T13:16:45.533Z,100961.16
2023-10-09T13:19:12.105Z,100953.16
2023-10-09T13:21:43.203Z,100962.84
2023-10-09T13:24:14.656Z,100956.94
2023-10-09T13:26:42.137Z,100952.78
2023-10-09T13:29:12.831Z,100945.63
2023-10-09T13:31:47.388Z,100947.94
2023-10-09T13:34:16.366Z,100941.84
2023-10-09T13:37:09.783Z,100938.94
2023-10-09T13:39:40.851Z,100949.88
2023-10-09T13:42:08.408Z,100942.31
2023-10-09T13:44:37.224Z,100942.09
2023-10-09T13:47:10.264Z,100945.69
2023-10-09T13:49:42.693Z,100948.22
2023-10-09T13:52:10.265Z,100950.72
2023-10-09T13:54:36.624Z,100947.81
2023-10-09T13:57:07.183Z,100943.88
2023-10-09T13:59:36.374Z,100936.94
2023-10-09T14:02:10.209Z,100934.84
2023-10-09T14:04:37.623Z,100930.84
2023-10-09T14:07:06.759Z,100932.56
2023-10-09T14:09:38.851Z,100929.03
2023-10-09T14:12:07.930Z,100920.81
2023-10-09T14:14:39.607Z,100927.34
2023-10-09T14:17:13.026Z,100927.78
2023-10-09T14:19:48.893Z,100922.31
2023-10-09T14:22:18.932Z,100925.06
2023-10-09T14:24:46.993Z,100914.75
2023-10-09T14:27:20.321Z,100915.34
2023-10-09T14:29:47.681Z,100918.28
2023-10-09T14:32:14.745Z,100921.25
2023-10-09T14:34:51.008Z,100913.03
2023-10-09T14:37:19.992Z,100912.00
2023-10-09T14:39:50.368Z,100908.00
2023-10-09T14:42:17.579Z,100911.78
2023-10-09T14:44:48.651Z,100909.69
2023-10-09T14:47:15.613Z,100902.31
2023-10-09T14:49:47.852Z,100908.81
2023-10-09T14:52:19.817Z,100910.53
2023-10-09T14:54:46.923Z,100910.31
2023-10-09T14:57:14.404Z,100908.00
2023-10-09T14:59:41.076Z,100915.34
2023-10-09T15:02:08.504Z,100909.00
2023-10-09T15:04:38.103Z,100901.69
2023-10-09T15:07:08.631Z,100906.94
2023-10-09T15:09:38.151Z,100909.66
2023-10-09T15:12:08.327Z,100909.81
2023-10-09T15:14:35.226Z,100908.56
2023-10-09T15:17:02.051Z,100908.03
2023-10-09T15:19:31.847Z,100904.88
2023-10-09T15:22:01.967Z,100914.34
2023-10-09T15:24:28.938Z,100910.31
2023-10-09T15:26:58.317Z,100921.41
2023-10-09T15:29:29.368Z,100910.84
2023-10-09T15:31:56.875Z,100909.97
2023-10-09T15:34:25.432Z,100912.97
2023-10-09T15:36:51.934Z,100921.31
2023-10-09T15:39:21.149Z,100923.63
2023-10-09T15:41:47.760Z,100936.72
2023-10-09T15:44:15.029Z,100926.41
2023-10-09T15:46:41.703Z,100924.53
2023-10-09T15:49:10.487Z,100928.72
2023-10-09T15:51:37.008Z,100925.16
2023-10-09T15:54:03.568Z,100924.44
2023-10-09T15:56:30.201Z,100926.31
2023-10-09T15:58:57.300Z,100923.69
2023-10-09T16:01:23.879Z,100926.06
2023-10-09T16:03:51.356Z,100919.91
2023-10-09T16:06:19.301Z,100942.38
2023-10-09T16:08:48.275Z,100935.91
2023-10-09T16:11:24.355Z,100930.09
2023-10-09T16:13:51.502Z,100932.97
2023-10-09T16:16:29.813Z,100935.56
2023-10-09T16:18:59.392Z,100941.91
2023-10-09T16:21:26.198Z,100941.75
2023-10-09T16:23:54.914Z,100932.84
2023-10-09T16:26:25.307Z,100934.03
2023-10-09T16:28:53.068Z,100942.44
2023-10-09T16:31:24.424Z,100941.59
2023-10-09T16:33:51.664Z,100933.91
2023-10-09T16:36:18.027Z,100939.38
2023-10-09T16:38:44.796Z,100944.63
2023-10-09T16:41:11.475Z,100957.53
2023-10-09T16:43:38.335Z,100964.31
2023-10-09T16:46:13.732Z,100958.13
2023-10-09T16:48:40.768Z,100969.97
2023-10-09T16:51:09.868Z,100963.88
2023-10-09T16:53:40.162Z,100959.81
2023-10-09T16:56:13.187Z,100952.59
2023-10-09T16:58:40.416Z,100960.09
2023-10-09T17:01:11.493Z,100958.13
2023-10-09T17:03:48.503Z,100952.53
2023-10-09T17:06:18.873Z,100966.69
2023-10-09T17:08:47.149Z,100968.00
2023-10-09T17:11:18.861Z,100970.44
2023-10-09T17:13:51.099Z,100964.81
2023-10-09T17:16:19.654Z,100967.75
2023-10-09T17:18:47.293Z,100971.69
2023-10-09T17:21:14.404Z,100967.75
2023-10-09T17:23:48.134Z,100966.78
2023-10-09T17:26:23.689Z,100957.66
2023-10-09T17:28:53.642Z,100967.88
2023-10-09T17:31:21.501Z,100957.31
2023-10-09T17:33:48.958Z,100958.16
2023-10-09T17:36:18.367Z,100954.47
2023-10-09T17:38:50.594Z,100954.66
2023-10-09T17:41:22.633Z,100950.78
2023-10-09T17:43:51.164Z,100947.59
2023-10-09T17:46:18.842Z,100949.16
2023-10-09T17:48:46.157Z,100954.97
2023-10-09T17:51:12.677Z,100955.63
2023-10-09T17:53:39.892Z,100960.69
2023-10-09T17:56:07.499Z,100960.69
2023-10-09T17:58:34.221Z,100966.47
2023-10-09T18:01:05.345Z,100964.97
2023-10-09T18:03:32.595Z,100969.91
2023-10-09T18:06:00.442Z,100964.31
2023-10-09T18:08:27.226Z,100966.22
2023-10-09T18:10:57.723Z,100971.38
2023-10-09T18:13:28.166Z,100976.19
2023-10-09T18:16:09.409Z,100978.44
2023-10-09T18:18:37.076Z,100981.53
2023-10-09T18:21:08.660Z,100986.16
2023-10-09T18:23:45.154Z,100980.94
2023-10-09T18:26:15.128Z,100980.47
2023-10-09T18:28:42.920Z,100988.59
2023-10-09T18:31:22.096Z,100988.47
2023-10-09T18:33:53.653Z,100997.47
2023-10-09T18:36:20.524Z,100995.44
2023-10-09T18:38:51.522Z,101002.06
2023-10-09T18:41:18.452Z,100996.78
2023-10-09T18:43:44.872Z,101001.56
2023-10-09T18:46:12.389Z,101007.66
2023-10-09T18:48:39.292Z,100996.66
2023-10-09T18:51:08.770Z,101001.25
2023-10-09T18:53:35.384Z,101002.09
2023-10-09T18:56:01.866Z,101000.56
2023-10-09T18:58:28.642Z,101012.44
2023-10-09T19:01:02.847Z,101003.81
2023-10-09T19:03:29.945Z,101011.78
2023-10-09T19:05:57.318Z,101012.81
2023-10-09T19:08:23.998Z,101015.88
2023-10-09T19:10:59.600Z,101012.13
2023-10-09T19:13:27.034Z,101019.06
2023-10-09T19:15:53.456Z,101023.66
2023-10-09T19:18:20.597Z,101012.31
2023-10-09T19:20:47.693Z,101019.44
2023-10-09T19:23:14.178Z,101018.91
2023-10-09T19:25:43.978Z,101015.16
2023-10-09T19:28:10.539Z,101016.03
2023-10-09T19:30:36.916Z,101020.59
2023-10-09T19:33:06.710Z,101021.13
2023-10-09T19:35:36.181Z,101018.25
2023-10-09T19:38:02.750Z,101014.19
2023-10-09T19:40:30.877Z,101018.78
2023-10-09T19:42:58.514Z,101023.31
2023-10-09T19:45:24.941Z,101023.69
2023-10-09T19:47:51.543Z,101033.69
2023-10-09T19:50:18.206Z,101033.50
2023-10-09T19:52:46.253Z,101035.53
2023-10-09T19:55:13.534Z,101043.19
2023-10-09T19:57:40.342Z,101047.25
2023-10-09T20:00:16.236Z,101051.31
2023-10-09T20:02:42.982Z,101052.34
2023-10-09T20:05:09.883Z,101057.41
2023-10-09T20:07:39.281Z,101050.09
2023-10-09T20:10:07.783Z,101061.63
2023-10-09T20:12:34.942Z,101057.56
2023-10-09T20:15:01.657Z,101053.34
2023-10-09T20:17:28.417Z,101056.88
2023-10-09T20:19:54.954Z,101059.91
2023-10-09T20:22:22.017Z,101055.16
2023-10-09T20:24:48.545Z,101053.44
2023-10-09T20:27:18.283Z,101061.22
2023-10-09T20:29:44.902Z,101063.19
2023-10-09T20:32:17.252Z,101063.00
2023-10-09T20:34:47.038Z,101067.75
2023-10-09T20:37:17.397Z,101058.06
2023-10-09T20:39:44.666Z,101059.09
2023-10-09T20:42:12.588Z,101063.38
2023-10-09T20:44:39.674Z,101066.72
2023-10-09T20:47:06.265Z,101066.88
2023-10-09T20:49:34.087Z,101072.13
2023-10-09T20:52:00.978Z,101070.56
2023-10-09T20:54:28.014Z,101075.59
2023-10-09T20:56:54.474Z,101081.22
2023-10-09T20:59:21.051Z,101081.13
2023-10-09T21:01:47.600Z,101079.75
2023-10-09T21:04:14.058Z,101084.19
2023-10-09T21:06:41.220Z,101101.00
2023-10-09T21:09:08.467Z,101099.38
2023-10-09T21:11:34.929Z,101094.56
2023-10-09T21:14:01.434Z,101100.44
2023-10-09T21:16:27.903Z,101099.25
2023-10-09T21:18:56.811Z,101106.25
2023-10-09T21:21:23.419Z,101099.81
2023-10-09T21:23:50.559Z,101111.97
2023-10-09T21:26:18.701Z,101117.00
2023-10-09T21:28:47.559Z,101107.81
2023-10-09T21:31:19.218Z,101108.81
2023-10-09T21:33:46.645Z,101105.19
2023-10-09T21:36:13.928Z,101098.00
2023-10-09T21:38:40.271Z,101103.66
2023-10-09T21:41:13.752Z,101099.63
2023-10-09T21:43:41.325Z,101099.31
2023-10-09T21:46:09.027Z,101100.09
2023-10-09T21:48:35.633Z,101106.03
2023-10-09T21:51:01.997Z,101101.94
2023-10-09T21:53:28.731Z,101109.66
2023-10-09T21:56:09.176Z,101105.25
2023-10-09T21:58:36.008Z,101102.84
2023-10-09T22:01:04.224Z,101109.44
2023-10-09T22:03:31.511Z,101105.50
2023-10-09T22:05:59.636Z,101112.59
2023-10-09T22:08:26.788Z,101104.09
2023-10-09T22:10:54.259Z,101107.97
2023-10-09T22:13:20.975Z,101113.81
2023-10-09T22:15:47.468Z,101108.16
2023-10-09T22:18:21.296Z,101107.88
2023-10-09T22:20:54.777Z,101104.94
2023-10-09T22:23:31.837Z,101098.34
2023-10-09T22:26:01.687Z,101105.09
2023-10-09T22:28:29.832Z,101105.69
2023-10-09T22:31:02.300Z,101108.84
2023-10-09T22:33:45.959Z,101105.44
2023-10-09T22:36:15.343Z,101107.06
2023-10-09T22:38:43.060Z,101104.94
2023-10-09T22:41:09.755Z,101102.41
2023-10-09T22:43:39.882Z,101104.25
2023-10-09T22:46:08.597Z,101102.16
2023-10-09T22:48:42.507Z,101103.16
2023-10-09T22:51:11.935Z,101095.94
2023-10-09T22:53:39.800Z,101098.03
2023-10-09T22:56:14.347Z,101102.22
2023-10-09T22:58:51.846Z,101094.81
2023-10-09T23:01:23.820Z,101094.00
2023-10-09T23:04:09.690Z,101096.41
2023-10-09T23:06:41.489Z,101096.09
2023-10-09T23:09:17.909Z,101098.78
2023-10-09T23:11:55.315Z,101096.16
2023-10-09T23:14:28.707Z,101100.88
2023-10-09T23:17:02.377Z,101097.88
2023-10-09T23:19:41.115Z,101099.72
2023-10-09T23:22:13.771Z,101106.97
2023-10-09T23:24:53.070Z,101093.63
2023-10-09T23:27:41.686Z,101098.31
2023-10-09T23:30:30.129Z,101094.91
2023-10-09T23:33:23.861Z,101099.75
2023-10-09T23:35:58.504Z,101105.31
2023-10-09T23:38:59.913Z,101093.97
2023-10-09T23:41:26.804Z,101104.03
2023-10-09T23:43:56.432Z,101106.03
2023-10-09T23:46:25.005Z,101099.22
2023-10-09T23:48:55.111Z,101105.22
2023-10-09T23:51:21.727Z,101109.34
2023-10-09T23:53:53.219Z,101095.28
2023-10-09T23:56:39.949Z,101107.09
2023-10-09T23:59:12.365Z,101100.56
